Time;durP1;ratioP1;P1;durP2;ratioP2;P2;SDS_P1;SDS_P2;PMS_P1;PMS_P2;Temp;Humidity;BMP_temperature;BMP_pressure;BME280_temperature;BME280_humidity;BME280_pressure;Samples;Min_cycle;Max_cycle;Signal;HPM_P1;HPM_P2
2023/08/31 00:01:36;;;;;;;7.25;5.97;;;;;;;;;;10214645;28;20080;-66
2023/08/31 00:06:34;;;;;;;7.50;6.70;;;;;;;;;;10195561;28;20107;-66
2023/08/31 00:11:32;;;;;;;6.13;5.53;;;;;;;;;;10217347;28;20561;-66
2023/08/31 00:16:33;;;;;;;7.18;6.35;;;;;;;;;;10218979;28;20355;-67
2023/08/31 00:21:31;;;;;;;11.73;6.45;;;;;;;;;;10217209;28;20064;-67
2023/08/31 00:26:30;;;;;;;10.55;6.53;;;;;;;;;;10217594;28;20069;-65
2023/08/31 00:31:30;;;;;;;8.02;6.43;;;;;;;;;;10216916;28;20077;-67
2023/08/31 00:36:32;;;;;;;12.13;7.63;;;;;;;;;;10200139;28;20511;-67
2023/08/31 00:41:30;;;;;;;8.75;6.90;;;;;;;;;;10199602;28;20072;-66
2023/08/31 00:46:29;;;;;;;8.50;7.50;;;;;;;;;;10218443;28;20083;-66
2023/08/31 00:51:27;;;;;;;8.63;7.72;;;;;;;;;;10216058;28;20085;-66
2023/08/31 00:56:27;;;;;;;8.48;7.72;;;;;;;;;;10226786;28;20088;-66
2023/08/31 01:01:28;;;;;;;9.50;8.07;;;;;;;;;;10257585;28;20164;-65
2023/08/31 01:06:32;;;;;;;10.48;7.50;;;;;;;;;;10256154;28;20596;-66
2023/08/31 01:11:35;;;;;;;8.07;7.10;;;;;;;;;;10256664;28;20601;-66
2023/08/31 01:16:34;;;;;;;9.33;7.50;;;;;;;;;;10252720;28;20521;-66
2023/08/31 01:21:35;;;;;;;8.23;7.32;;;;;;;;;;10254580;28;20064;-66
2023/08/31 01:26:35;;;;;;;8.32;7.63;;;;;;;;;;10257538;28;20455;-66
2023/08/31 01:31:33;;;;;;;9.50;7.97;;;;;;;;;;10255801;28;20077;-66
2023/08/31 01:36:34;;;;;;;12.32;8.70;;;;;;;;;;10254325;28;20088;-66
2023/08/31 01:41:35;;;;;;;8.93;8.18;;;;;;;;;;10254414;28;20057;-66
2023/08/31 01:46:35;;;;;;;9.85;7.57;;;;;;;;;;10256109;28;20076;-66
2023/08/31 01:51:33;;;;;;;11.05;8.45;;;;;;;;;;10255215;28;20510;-67
2023/08/31 01:56:31;;;;;;;10.30;8.32;;;;;;;;;;10253534;28;20088;-66
2023/08/31 02:01:30;;;;;;;10.65;9.02;;;;;;;;;;10255821;28;20505;-66
2023/08/31 02:06:29;;;;;;;13.15;8.50;;;;;;;;;;10253189;28;20068;-66
2023/08/31 02:11:27;;;;;;;8.50;7.70;;;;;;;;;;10254154;28;20080;-67
2023/08/31 02:16:26;;;;;;;10.00;8.10;;;;;;;;;;10254008;28;20088;-66
2023/08/31 02:21:24;;;;;;;9.32;8.43;;;;;;;;;;10252855;28;20077;-65
2023/08/31 02:26:25;;;;;;;9.68;8.75;;;;;;;;;;10254357;28;20069;-67
2023/08/31 02:31:23;;;;;;;9.25;8.38;;;;;;;;;;10251194;28;20088;-67
2023/08/31 02:36:21;;;;;;;10.23;9.10;;;;;;;;;;10254033;28;20524;-67
2023/08/31 02:41:20;;;;;;;10.18;9.15;;;;;;;;;;10250399;28;20530;-67
2023/08/31 02:46:22;;;;;;;12.65;9.32;;;;;;;;;;10254946;28;20069;-67
2023/08/31 02:51:21;;;;;;;13.10;9.37;;;;;;;;;;10250859;28;20077;-67
2023/08/31 02:56:22;;;;;;;13.55;9.65;;;;;;;;;;10255917;28;20490;-66
2023/08/31 03:01:23;;;;;;;11.23;9.85;;;;;;;;;;10252517;28;20073;-66
2023/08/31 03:06:23;;;;;;;17.35;9.77;;;;;;;;;;10257776;28;20080;-66
2023/08/31 03:11:21;;;;;;;11.38;9.57;;;;;;;;;;10254896;28;20076;-66
2023/08/31 03:16:22;;;;;;;10.00;9.02;;;;;;;;;;10255784;28;20091;-67
2023/08/31 03:21:21;;;;;;;10.60;9.50;;;;;;;;;;10261314;28;20073;-66
2023/08/31 03:26:22;;;;;;;12.77;10.57;;;;;;;;;;10269962;28;20073;-66
2023/08/31 03:31:21;;;;;;;12.73;9.80;;;;;;;;;;10256820;28;20080;-66
2023/08/31 03:36:19;;;;;;;10.90;9.80;;;;;;;;;;10256853;28;20080;-67
2023/08/31 03:41:19;;;;;;;12.68;10.40;;;;;;;;;;10259033;28;20048;-67
2023/08/31 03:46:17;;;;;;;11.68;10.48;;;;;;;;;;10259222;28;20068;-66
2023/08/31 03:51:16;;;;;;;14.20;12.25;;;;;;;;;;10258528;28;20533;-66
2023/08/31 03:56:15;;;;;;;11.13;9.95;;;;;;;;;;10256981;28;20077;-67
2023/08/31 04:01:18;;;;;;;14.30;12.00;;;;;;;;;;10259087;28;20483;-65
2023/08/31 04:06:17;;;;;;;14.75;11.40;;;;;;;;;;10265464;28;20072;-67
2023/08/31 04:11:16;;;;;;;12.85;11.07;;;;;;;;;;10259508;28;20049;-67
2023/08/31 04:16:14;;;;;;;12.82;11.55;;;;;;;;;;10256270;28;20088;-67
2023/08/31 04:21:14;;;;;;;17.10;12.15;;;;;;;;;;10258148;28;20084;-67
2023/08/31 04:26:12;;;;;;;16.92;11.70;;;;;;;;;;10257913;28;20061;-67
2023/08/31 04:31:11;;;;;;;13.65;11.55;;;;;;;;;;10259186;28;20068;-67
2023/08/31 04:36:09;;;;;;;12.70;11.48;;;;;;;;;;10256043;28;20068;-67
2023/08/31 04:41:09;;;;;;;14.43;11.45;;;;;;;;;;10255673;28;20076;-67
2023/08/31 04:46:07;;;;;;;13.68;12.38;;;;;;;;;;10254210;28;20073;-67
2023/08/31 04:51:05;;;;;;;13.15;11.95;;;;;;;;;;10257322;28;20069;-66
2023/08/31 04:56:04;;;;;;;12.52;11.40;;;;;;;;;;10254594;28;20084;-67
2023/08/31 05:01:03;;;;;;;13.50;11.88;;;;;;;;;;10258254;28;20071;-67
2023/08/31 05:06:04;;;;;;;15.25;12.68;;;;;;;;;;10257264;28;20076;-67
2023/08/31 05:11:03;;;;;;;20.17;14.48;;;;;;;;;;10255676;28;20073;-67
2023/08/31 05:16:02;;;;;;;13.13;11.73;;;;;;;;;;10257055;28;20068;-66
2023/08/31 05:21:02;;;;;;;14.88;13.60;;;;;;;;;;10258344;28;20072;-67
2023/08/31 05:26:01;;;;;;;17.30;13.85;;;;;;;;;;10263560;28;20060;-67
2023/08/31 05:31:03;;;;;;;17.20;14.32;;;;;;;;;;10259164;28;20060;-66
2023/08/31 05:36:04;;;;;;;17.35;15.75;;;;;;;;;;10266485;28;20069;-66
2023/08/31 05:41:06;;;;;;;18.15;16.35;;;;;;;;;;10260268;28;20083;-66
2023/08/31 05:46:05;;;;;;;18.98;17.08;;;;;;;;;;10255746;28;20064;-67
2023/08/31 05:51:04;;;;;;;19.77;16.92;;;;;;;;;;10255421;28;20053;-67
2023/08/31 05:56:04;;;;;;;17.55;15.70;;;;;;;;;;10261324;28;20088;-66
2023/08/31 06:01:03;;;;;;;21.75;16.05;;;;;;;;;;10255628;28;20080;-66
2023/08/31 06:06:03;;;;;;;15.20;13.68;;;;;;;;;;10257859;28;20064;-66
2023/08/31 06:11:02;;;;;;;16.58;15.05;;;;;;;;;;10259010;28;20079;-66
2023/08/31 06:16:01;;;;;;;16.15;14.60;;;;;;;;;;10248290;28;20112;-67
2023/08/31 06:20:59;;;;;;;15.70;14.20;;;;;;;;;;10254476;28;20065;-66
2023/08/31 06:25:57;;;;;;;15.35;13.43;;;;;;;;;;10256107;28;20069;-67
2023/08/31 06:30:57;;;;;;;14.98;13.40;;;;;;;;;;10254977;28;20061;-67
2023/08/31 06:35:55;;;;;;;14.32;12.73;;;;;;;;;;10259596;28;20513;-67
2023/08/31 06:40:58;;;;;;;14.77;13.48;;;;;;;;;;10255850;28;20255;-66
2023/08/31 06:45:58;;;;;;;13.13;12.02;;;;;;;;;;10260965;28;20462;-66
2023/08/31 06:51:17;;;;;;;14.18;12.90;;;;;;;;;;10262300;28;20076;-67
2023/08/31 06:56:15;;;;;;;15.13;13.15;;;;;;;;;;10256671;28;20080;-66
2023/08/31 07:01:15;;;;;;;14.13;12.93;;;;;;;;;;10261882;28;20073;-66
2023/08/31 07:06:13;;;;;;;14.55;13.15;;;;;;;;;;10261899;28;20060;-67
2023/08/31 07:11:12;;;;;;;13.88;12.43;;;;;;;;;;10257585;28;20098;-67
2023/08/31 07:16:10;;;;;;;14.18;12.10;;;;;;;;;;10259400;28;20072;-67
2023/08/31 07:21:10;;;;;;;13.00;11.60;;;;;;;;;;10259808;28;20089;-67
2023/08/31 07:26:11;;;;;;;17.25;12.40;;;;;;;;;;10256934;28;20087;-67
2023/08/31 07:31:09;;;;;;;14.02;11.25;;;;;;;;;;10260711;28;20083;-66
2023/08/31 07:36:10;;;;;;;11.05;9.98;;;;;;;;;;10255097;28;20072;-66
2023/08/31 07:41:08;;;;;;;12.13;10.68;;;;;;;;;;10256457;28;20459;-67
2023/08/31 07:46:06;;;;;;;10.38;9.45;;;;;;;;;;10259094;28;20068;-66
2023/08/31 07:51:05;;;;;;;12.40;11.07;;;;;;;;;;10259749;28;20069;-65
2023/08/31 07:56:04;;;;;;;11.52;10.40;;;;;;;;;;10258604;28;20092;-68
2023/08/31 08:01:05;;;;;;;12.15;10.95;;;;;;;;;;10258811;28;20065;-66
2023/08/31 08:06:03;;;;;;;28.45;12.02;;;;;;;;;;10258690;28;20091;-66
2023/08/31 08:11:02;;;;;;;13.73;11.43;;;;;;;;;;10259784;28;20072;-67
2023/08/31 08:16:02;;;;;;;13.82;12.52;;;;;;;;;;10257231;28;20076;-67
2023/08/31 08:21:00;;;;;;;13.93;12.48;;;;;;;;;;10259091;28;20084;-68
2023/08/31 08:25:59;;;;;;;14.63;13.15;;;;;;;;;;10258775;28;20469;-67
2023/08/31 08:30:57;;;;;;;13.75;12.35;;;;;;;;;;10258727;28;20080;-67
2023/08/31 08:35:59;;;;;;;13.98;12.57;;;;;;;;;;10256941;28;20076;-66
2023/08/31 08:40:58;;;;;;;14.85;13.30;;;;;;;;;;10257665;28;20072;-66
2023/08/31 08:46:01;;;;;;;17.67;14.05;;;;;;;;;;10258268;28;20084;-66
2023/08/31 08:51:00;;;;;;;15.40;13.90;;;;;;;;;;10257398;28;20092;-65
2023/08/31 08:55:59;;;;;;;15.27;13.88;;;;;;;;;;10256384;28;20081;-66
2023/08/31 09:00:57;;;;;;;15.60;13.40;;;;;;;;;;10253749;28;20084;-66
2023/08/31 09:05:57;;;;;;;15.68;14.15;;;;;;;;;;10254315;28;20073;-66
2023/08/31 09:10:58;;;;;;;15.43;13.82;;;;;;;;;;10253899;28;20536;-66
2023/08/31 09:15:57;;;;;;;21.70;19.60;;;;;;;;;;10254095;28;20080;-66
2023/08/31 09:20:57;;;;;;;16.25;14.75;;;;;;;;;;10255954;28;20064;-68
2023/08/31 09:25:57;;;;;;;17.17;15.13;;;;;;;;;;10255905;28;20080;-67
2023/08/31 09:31:05;;;;;;;17.33;14.65;;;;;;;;;;10248312;28;20061;-67
2023/08/31 09:36:03;;;;;;;18.98;13.68;;;;;;;;;;10254678;28;20080;-67
2023/08/31 09:41:06;;;;;;;16.00;12.55;;;;;;;;;;10252797;28;20159;-66
2023/08/31 09:46:05;;;;;;;15.77;12.02;;;;;;;;;;10253431;28;20077;-66
2023/08/31 09:51:04;;;;;;;13.30;12.02;;;;;;;;;;10253744;28;20088;-65
2023/08/31 09:56:04;;;;;;;15.68;12.40;;;;;;;;;;10217140;28;1132617;-67
2023/08/31 10:01:03;;;;;;;14.02;11.65;;;;;;;;;;10257438;28;20064;-67
2023/08/31 10:06:10;;;;;;;14.02;12.73;;;;;;;;;;10256090;28;20049;-67
2023/08/31 10:11:12;;;;;;;12.02;10.43;;;;;;;;;;10254137;28;20506;-67
2023/08/31 10:16:12;;;;;;;10.45;9.45;;;;;;;;;;10256907;28;20079;-67
2023/08/31 10:21:10;;;;;;;10.45;8.85;;;;;;;;;;10258288;28;20065;-66
2023/08/31 10:26:08;;;;;;;9.32;7.47;;;;;;;;;;10253677;28;20451;-67
2023/08/31 10:31:08;;;;;;;10.93;7.60;;;;;;;;;;10250866;28;20072;-67
2023/08/31 10:36:10;;;;;;;9.40;7.28;;;;;;;;;;10256964;28;20068;-66
2023/08/31 10:41:21;;;;;;;11.32;6.38;;;;;;;;;;10258122;28;20491;-67
2023/08/31 10:46:25;;;;;;;14.93;6.72;;;;;;;;;;10260737;28;20091;-68
2023/08/31 10:51:26;;;;;;;7.22;6.25;;;;;;;;;;10256956;28;20069;-68
2023/08/31 10:56:30;;;;;;;11.35;6.15;;;;;;;;;;10261467;28;20092;-69
2023/08/31 11:01:47;;;;;;;12.25;5.40;;;;;;;;;;10257414;28;20073;-69
2023/08/31 11:06:46;;;;;;;9.80;5.78;;;;;;;;;;10262136;28;20485;-69
2023/08/31 11:11:45;;;;;;;6.32;4.97;;;;;;;;;;10256873;28;20482;-69
2023/08/31 11:16:44;;;;;;;8.30;4.90;;;;;;;;;;10260512;28;20485;-69
2023/08/31 11:21:42;;;;;;;7.95;4.00;;;;;;;;;;10259950;28;20069;-69
2023/08/31 11:26:43;;;;;;;6.82;4.57;;;;;;;;;;10265945;28;20084;-69
2023/08/31 11:31:41;;;;;;;5.53;4.05;;;;;;;;;;10266103;28;20065;-69
2023/08/31 11:36:40;;;;;;;6.00;4.00;;;;;;;;;;10268191;28;20136;-68
2023/08/31 11:41:41;;;;;;;9.35;4.10;;;;;;;;;;10264128;28;20092;-69
2023/08/31 11:46:43;;;;;;;4.40;3.40;;;;;;;;;;10260090;28;20064;-69
2023/08/31 11:51:42;;;;;;;7.32;3.55;;;;;;;;;;10263339;28;20068;-68
2023/08/31 11:56:42;;;;;;;6.90;4.03;;;;;;;;;;10261297;28;20080;-68
2023/08/31 12:01:50;;;;;;;7.30;3.88;;;;;;;;;;10269811;28;20087;-69
2023/08/31 12:06:50;;;;;;;6.45;3.40;;;;;;;;;;10266465;28;20073;-68
2023/08/31 12:11:52;;;;;;;4.60;3.42;;;;;;;;;;10262626;28;20081;-69
2023/08/31 12:16:52;;;;;;;9.45;3.72;;;;;;;;;;10260976;28;20080;-68
2023/08/31 12:21:51;;;;;;;5.88;3.30;;;;;;;;;;10268192;28;20072;-66
2023/08/31 12:26:50;;;;;;;4.18;3.53;;;;;;;;;;10261578;28;20083;-67
2023/08/31 12:31:49;;;;;;;4.82;3.75;;;;;;;;;;10265260;28;20069;-66
2023/08/31 12:36:49;;;;;;;5.93;3.78;;;;;;;;;;10260931;28;20466;-68
2023/08/31 12:41:47;;;;;;;6.32;4.15;;;;;;;;;;10260708;28;20072;-69
2023/08/31 12:46:45;;;;;;;5.97;3.13;;;;;;;;;;10259741;28;20069;-68
2023/08/31 12:51:43;;;;;;;6.43;4.15;;;;;;;;;;10257733;28;20108;-68
2023/08/31 12:56:43;;;;;;;4.07;3.60;;;;;;;;;;10255659;28;20083;-69
2023/08/31 13:01:41;;;;;;;9.13;3.17;;;;;;;;;;10265488;28;20434;-68
2023/08/31 13:06:39;;;;;;;9.63;3.45;;;;;;;;;;10263938;28;20088;-69
2023/08/31 13:11:38;;;;;;;6.85;3.20;;;;;;;;;;10262699;28;20083;-68
2023/08/31 13:16:40;;;;;;;7.97;3.10;;;;;;;;;;10266512;28;20075;-69
2023/08/31 13:21:40;;;;;;;5.82;3.33;;;;;;;;;;10266204;28;20068;-68
2023/08/31 13:26:39;;;;;;;3.53;3.03;;;;;;;;;;10263758;28;20068;-69
2023/08/31 13:31:39;;;;;;;4.93;3.17;;;;;;;;;;10259459;28;20063;-69
2023/08/31 13:36:38;;;;;;;4.78;2.83;;;;;;;;;;10260353;28;20099;-69
2023/08/31 13:41:37;;;;;;;4.50;2.47;;;;;;;;;;10261871;28;20075;-67
2023/08/31 13:46:35;;;;;;;3.67;3.08;;;;;;;;;;10263532;28;20076;-67
2023/08/31 13:51:35;;;;;;;8.88;3.13;;;;;;;;;;10264089;28;20136;-67
2023/08/31 13:56:33;;;;;;;3.63;3.28;;;;;;;;;;10300067;22;20368;-68
2023/08/31 14:01:31;;;;;;;4.90;3.00;;;;;;;;;;10351134;28;20068;-67
2023/08/31 14:06:30;;;;;;;5.43;3.08;;;;;;;;;;10346624;28;20079;-67
2023/08/31 14:11:30;;;;;;;4.97;3.03;;;;;;;;;;10347319;28;20102;-67
2023/08/31 14:16:28;;;;;;;5.07;2.78;;;;;;;;;;10347729;28;20076;-67
2023/08/31 14:21:27;;;;;;;6.43;3.85;;;;;;;;;;10345295;28;20071;-69
2023/08/31 14:26:25;;;;;;;3.95;2.70;;;;;;;;;;10348987;28;20168;-67
2023/08/31 14:31:25;;;;;;;9.55;3.60;;;;;;;;;;10349772;28;20068;-68
2023/08/31 14:36:23;;;;;;;6.80;3.00;;;;;;;;;;10336855;28;20135;-68
2023/08/31 14:41:21;;;;;;;3.13;2.53;;;;;;;;;;10346147;28;20480;-68
2023/08/31 14:46:21;;;;;;;4.78;2.58;;;;;;;;;;10348494;28;20060;-67
2023/08/31 14:51:21;;;;;;;6.85;4.07;;;;;;;;;;10349422;28;20064;-68
2023/08/31 14:56:19;;;;;;;6.45;3.53;;;;;;;;;;10347319;28;20500;-68
2023/08/31 15:01:19;;;;;;;4.20;3.70;;;;;;;;;;10349452;28;20090;-68
2023/08/31 15:06:17;;;;;;;8.27;3.38;;;;;;;;;;10351851;28;20489;-69
2023/08/31 15:11:18;;;;;;;6.32;2.95;;;;;;;;;;10350298;28;20079;-69
2023/08/31 15:16:19;;;;;;;5.47;3.10;;;;;;;;;;10350575;28;20064;-68
2023/08/31 15:21:17;;;;;;;4.10;2.58;;;;;;;;;;10355096;28;20118;-68
2023/08/31 15:26:19;;;;;;;3.72;2.80;;;;;;;;;;10355355;28;20068;-68
2023/08/31 15:31:18;;;;;;;4.78;3.20;;;;;;;;;;10353909;28;20059;-68
2023/08/31 15:36:17;;;;;;;3.30;2.67;;;;;;;;;;10351790;28;20099;-68
2023/08/31 15:41:15;;;;;;;5.43;2.65;;;;;;;;;;10352631;28;20064;-69
2023/08/31 15:46:16;;;;;;;6.20;3.63;;;;;;;;;;10358541;28;20102;-68
2023/08/31 15:51:14;;;;;;;7.75;6.70;;;;;;;;;;10356658;28;20070;-66
2023/08/31 15:56:13;;;;;;;6.32;3.63;;;;;;;;;;10356740;28;20086;-68
2023/08/31 16:01:11;;;;;;;4.97;3.90;;;;;;;;;;10353095;28;20071;-68
2023/08/31 16:06:13;;;;;;;21.88;16.27;;;;;;;;;;10356783;28;20072;-68
2023/08/31 16:11:11;;;;;;;5.03;3.00;;;;;;;;;;10355230;28;20467;-67
2023/08/31 16:16:09;;;;;;;5.45;3.17;;;;;;;;;;10349734;28;20098;-68
2023/08/31 16:21:07;;;;;;;11.43;8.40;;;;;;;;;;10355113;28;20070;-67
2023/08/31 16:26:07;;;;;;;5.10;2.58;;;;;;;;;;10355657;28;20052;-67
2023/08/31 16:31:05;;;;;;;5.95;2.22;;;;;;;;;;10356167;28;20470;-67
2023/08/31 16:36:04;;;;;;;4.25;2.80;;;;;;;;;;10352002;28;20070;-66
2023/08/31 16:41:03;;;;;;;6.07;2.95;;;;;;;;;;10356334;28;20079;-66
2023/08/31 16:46:05;;;;;;;4.88;2.78;;;;;;;;;;10353088;28;20078;-67
2023/08/31 16:51:08;;;;;;;5.38;2.80;;;;;;;;;;10349542;28;20079;-66
2023/08/31 16:56:10;;;;;;;5.53;2.85;;;;;;;;;;10352721;28;20090;-68
2023/08/31 17:01:10;;;;;;;3.03;2.70;;;;;;;;;;10350981;28;20076;-68
2023/08/31 17:06:08;;;;;;;9.15;3.40;;;;;;;;;;10350682;28;20062;-66
2023/08/31 17:11:17;;;;;;;;;;;;;;;;;;;;;
2023/08/31 17:16:17;;;;;;;8.88;3.28;;;;;;;;;;10351289;28;20524;-68
2023/08/31 17:21:15;;;;;;;6.40;4.85;;;;;;;;;;10352351;28;20497;-68
2023/08/31 17:26:21;;;;;;;13.45;3.78;;;;;;;;;;10353557;28;20060;-66
2023/08/31 17:31:21;;;;;;;8.65;2.95;;;;;;;;;;10352730;28;20153;-66
2023/08/31 17:36:19;;;;;;;3.85;2.40;;;;;;;;;;10351431;28;20067;-67
2023/08/31 17:41:17;;;;;;;8.50;2.97;;;;;;;;;;10354040;28;20067;-68
2023/08/31 17:46:15;;;;;;;5.13;2.47;;;;;;;;;;10347490;28;20457;-67
2023/08/31 17:51:15;;;;;;;7.30;3.58;;;;;;;;;;10347771;28;20068;-67
2023/08/31 17:56:14;;;;;;;8.50;3.88;;;;;;;;;;10348496;28;20099;-67
2023/08/31 18:01:13;;;;;;;8.98;3.05;;;;;;;;;;10349602;28;20067;-67
2023/08/31 18:06:11;;;;;;;6.68;2.88;;;;;;;;;;10343293;28;20059;-67
2023/08/31 18:11:11;;;;;;;4.80;3.40;;;;;;;;;;10352392;28;20079;-66
2023/08/31 18:16:11;;;;;;;5.03;3.20;;;;;;;;;;10348182;28;20555;-67
2023/08/31 18:21:10;;;;;;;5.20;3.00;;;;;;;;;;10353178;28;20068;-67
2023/08/31 18:26:08;;;;;;;5.15;3.00;;;;;;;;;;10351101;28;20075;-66
2023/08/31 18:31:24;;;;;;;4.78;3.58;;;;;;;;;;10348530;28;20076;-66
2023/08/31 18:36:22;;;;;;;3.65;3.25;;;;;;;;;;10358020;28;20075;-66
2023/08/31 18:41:21;;;;;;;6.60;3.20;;;;;;;;;;10354776;28;20079;-67
2023/08/31 18:46:19;;;;;;;5.53;3.25;;;;;;;;;;10357236;28;20078;-67
2023/08/31 18:51:19;;;;;;;13.48;2.92;;;;;;;;;;10353696;28;20120;-66
2023/08/31 18:56:17;;;;;;;6.88;3.15;;;;;;;;;;10352333;28;20086;-67
2023/08/31 19:01:15;;;;;;;4.30;3.42;;;;;;;;;;10353467;28;20519;-67
2023/08/31 19:06:14;;;;;;;8.80;3.28;;;;;;;;;;10355059;28;20067;-67
2023/08/31 19:11:13;;;;;;;12.05;3.22;;;;;;;;;;10356241;28;20067;-67
2023/08/31 19:16:11;;;;;;;11.90;3.60;;;;;;;;;;10354948;28;20083;-66
2023/08/31 19:21:10;;;;;;;4.07;3.15;;;;;;;;;;10350303;28;20075;-67
2023/08/31 19:26:19;;;;;;;6.38;3.28;;;;;;;;;;10368497;28;20078;-67
2023/08/31 19:31:20;;;;;;;8.70;3.47;;;;;;;;;;10358743;28;20072;-67
2023/08/31 19:36:18;;;;;;;8.73;3.85;;;;;;;;;;10356876;28;20087;-67
2023/08/31 19:41:16;;;;;;;7.03;4.75;;;;;;;;;;10354343;28;20493;-67
2023/08/31 19:46:18;;;;;;;11.90;4.75;;;;;;;;;;10355666;28;20059;-67
2023/08/31 19:51:16;;;;;;;7.30;4.65;;;;;;;;;;10353060;28;20074;-68
2023/08/31 19:56:14;;;;;;;7.85;5.82;;;;;;;;;;10354451;28;20079;-66
2023/08/31 20:01:13;;;;;;;13.93;5.90;;;;;;;;;;10357832;28;20079;-66
2023/08/31 20:06:19;;;;;;;7.05;5.28;;;;;;;;;;10355907;28;20062;-67
2023/08/31 20:11:17;;;;;;;11.05;6.25;;;;;;;;;;10356792;28;20075;-66
2023/08/31 20:16:15;;;;;;;10.95;5.53;;;;;;;;;;10356289;28;20079;-67
2023/08/31 20:21:16;;;;;;;9.52;4.15;;;;;;;;;;10353672;28;20511;-66
2023/08/31 20:26:14;;;;;;;8.23;5.22;;;;;;;;;;10352710;28;20068;-67
2023/08/31 20:31:15;;;;;;;5.57;4.40;;;;;;;;;;10351705;28;20067;-67
2023/08/31 20:36:15;;;;;;;7.43;4.50;;;;;;;;;;10348599;28;20064;-66
2023/08/31 20:41:16;;;;;;;5.30;3.92;;;;;;;;;;10348238;28;20070;-67
2023/08/31 20:46:14;;;;;;;6.35;3.85;;;;;;;;;;10353557;28;20056;-67
2023/08/31 20:51:16;;;;;;;8.15;4.68;;;;;;;;;;10345415;28;20500;-66
2023/08/31 20:56:20;;;;;;;6.95;3.60;;;;;;;;;;10348463;28;20079;-65
2023/08/31 21:01:23;;;;;;;4.55;3.28;;;;;;;;;;10354099;28;20055;-67
2023/08/31 21:12:12;;;;;;;4.50;3.47;;;;;;;;;;10323875;28;20080;-66
2023/08/31 21:22:35;;;;;;;5.63;4.85;;;;;;;;;;10299866;28;20087;-65
2023/08/31 21:27:56;;;;;;;7.03;5.20;;;;;;;;;;10327109;28;20067;-66
2023/08/31 21:32:56;;;;;;;5.60;4.65;;;;;;;;;;10330694;28;20068;-66
2023/08/31 21:37:54;;;;;;;4.15;3.42;;;;;;;;;;10326569;28;20496;-64
2023/08/31 21:42:52;;;;;;;4.60;3.38;;;;;;;;;;10327971;28;20064;-65
2023/08/31 21:47:51;;;;;;;3.05;2.78;;;;;;;;;;10329529;28;20071;-66
2023/08/31 21:52:50;;;;;;;3.47;2.90;;;;;;;;;;10329067;28;20513;-66
2023/08/31 21:57:50;;;;;;;3.40;2.72;;;;;;;;;;10326042;28;20082;-66
2023/08/31 22:02:50;;;;;;;13.13;3.30;;;;;;;;;;10330434;28;20067;-66
2023/08/31 22:07:50;;;;;;;4.40;3.47;;;;;;;;;;10325047;28;20084;-65
2023/08/31 22:12:51;;;;;;;3.78;2.35;;;;;;;;;;10326818;28;20075;-65
2023/08/31 22:17:52;;;;;;;6.10;3.13;;;;;;;;;;10327638;28;20068;-66
2023/08/31 22:22:55;;;;;;;4.28;2.92;;;;;;;;;;10325651;28;20076;-66
2023/08/31 22:27:56;;;;;;;5.53;3.10;;;;;;;;;;10327981;28;20086;-65
2023/08/31 22:32:55;;;;;;;7.72;3.13;;;;;;;;;;10324521;28;20539;-67
2023/08/31 22:37:55;;;;;;;3.55;2.97;;;;;;;;;;10329892;28;20079;-67
2023/08/31 22:42:53;;;;;;;7.05;3.00;;;;;;;;;;10323500;28;20537;-66
2023/08/31 22:47:51;;;;;;;4.05;3.28;;;;;;;;;;10327535;28;20083;-66
2023/08/31 22:52:49;;;;;;;5.55;2.85;;;;;;;;;;10322159;28;20105;-66
2023/08/31 22:57:49;;;;;;;4.78;2.95;;;;;;;;;;10325175;28;20060;-66
2023/08/31 23:03:14;;;;;;;6.32;3.53;;;;;;;;;;10327379;28;20071;-66
2023/08/31 23:08:16;;;;;;;5.13;3.17;;;;;;;;;;10322859;28;20083;-66
2023/08/31 23:13:16;;;;;;;5.85;2.88;;;;;;;;;;10329478;28;20088;-66
2023/08/31 23:18:14;;;;;;;5.78;2.83;;;;;;;;;;10298882;28;20067;-66
2023/08/31 23:23:13;;;;;;;8.10;2.83;;;;;;;;;;10330817;28;20506;-66
2023/08/31 23:28:13;;;;;;;5.72;2.70;;;;;;;;;;10329406;28;20063;-67
2023/08/31 23:33:13;;;;;;;6.40;4.20;;;;;;;;;;10335775;28;20481;-66
2023/08/31 23:38:13;;;;;;;2.92;2.60;;;;;;;;;;10331934;28;20074;-66
2023/08/31 23:43:15;;;;;;;2.80;2.60;;;;;;;;;;10330073;28;20074;-66
2023/08/31 23:48:15;;;;;;;6.25;2.70;;;;;;;;;;10331592;28;20063;-66
2023/08/31 23:53:13;;;;;;;7.32;3.08;;;;;;;;;;10329486;28;20068;-66
2023/08/31 23:58:12;;;;;;;2.60;2.40;;;;;;;;;;10331969;28;20064;-65
